sensor_id;sensor_type;location;lat;lon;timestamp;P1;durP1;ratioP1;P2;durP2;ratioP2
43809;SDS011;29440;48.208;11.162;2023-08-31T00:01:38;2.78;;;1.88;;
43809;SDS011;29440;48.208;11.162;2023-08-31T00:04:04;3.00;;;1.70;;
43809;SDS011;29440;48.208;11.162;2023-08-31T00:06:31;3.10;;;2.20;;
43809;SDS011;29440;48.208;11.162;2023-08-31T00:08:56;2.33;;;1.67;;
43809;SDS011;29440;48.208;11.162;2023-08-31T00:11:22;2.35;;;1.75;;
43809;SDS011;29440;48.208;11.162;2023-08-31T00:13:49;4.03;;;1.38;;
43809;SDS011;29440;48.208;11.162;2023-08-31T00:16:14;2.75;;;1.60;;
43809;SDS011;29440;48.208;11.162;2023-08-31T00:18:40;2.00;;;1.60;;
43809;SDS011;29440;48.208;11.162;2023-08-31T00:21:24;2.60;;;1.92;;
43809;SDS011;29440;48.208;11.162;2023-08-31T00:23:50;2.28;;;2.00;;
43809;SDS011;29440;48.208;11.162;2023-08-31T00:26:16;2.90;;;1.90;;
43809;SDS011;29440;48.208;11.162;2023-08-31T00:28:41;2.05;;;1.50;;
43809;SDS011;29440;48.208;11.162;2023-08-31T00:31:09;3.03;;;2.40;;
43809;SDS011;29440;48.208;11.162;2023-08-31T00:33:35;2.50;;;1.80;;
43809;SDS011;29440;48.208;11.162;2023-08-31T00:36:02;1.98;;;1.77;;
43809;SDS011;29440;48.208;11.162;2023-08-31T00:38:28;2.08;;;1.58;;
43809;SDS011;29440;48.208;11.162;2023-08-31T00:40:55;2.03;;;1.60;;
43809;SDS011;29440;48.208;11.162;2023-08-31T00:43:20;1.77;;;1.52;;
43809;SDS011;29440;48.208;11.162;2023-08-31T00:45:47;1.77;;;1.60;;
43809;SDS011;29440;48.208;11.162;2023-08-31T00:48:15;2.20;;;1.80;;
43809;SDS011;29440;48.208;11.162;2023-08-31T00:50:48;2.03;;;1.70;;
43809;SDS011;29440;48.208;11.162;2023-08-31T00:53:14;2.90;;;1.63;;
43809;SDS011;29440;48.208;11.162;2023-08-31T00:55:40;3.92;;;1.90;;
43809;SDS011;29440;48.208;11.162;2023-08-31T00:58:07;3.15;;;1.67;;
43809;SDS011;29440;48.208;11.162;2023-08-31T01:00:39;3.00;;;2.10;;
43809;SDS011;29440;48.208;11.162;2023-08-31T01:03:23;3.45;;;2.05;;
43809;SDS011;29440;48.208;11.162;2023-08-31T01:06:03;3.25;;;1.65;;
43809;SDS011;29440;48.208;11.162;2023-08-31T01:08:46;3.50;;;1.67;;
43809;SDS011;29440;48.208;11.162;2023-08-31T01:11:30;1.95;;;1.75;;
43809;SDS011;29440;48.208;11.162;2023-08-31T01:14:12;2.92;;;2.17;;
43809;SDS011;29440;48.208;11.162;2023-08-31T01:16:43;2.35;;;1.70;;
43809;SDS011;29440;48.208;11.162;2023-08-31T01:19:29;2.25;;;2.05;;
43809;SDS011;29440;48.208;11.162;2023-08-31T01:22:13;4.10;;;1.95;;
43809;SDS011;29440;48.208;11.162;2023-08-31T01:24:46;3.22;;;1.88;;
43809;SDS011;29440;48.208;11.162;2023-08-31T01:27:12;2.40;;;1.65;;
43809;SDS011;29440;48.208;11.162;2023-08-31T01:29:38;2.20;;;1.50;;
43809;SDS011;29440;48.208;11.162;2023-08-31T01:32:07;1.95;;;1.60;;
43809;SDS011;29440;48.208;11.162;2023-08-31T01:34:33;2.50;;;1.52;;
43809;SDS011;29440;48.208;11.162;2023-08-31T01:37:00;2.42;;;1.83;;
43809;SDS011;29440;48.208;11.162;2023-08-31T01:39:33;2.47;;;1.67;;
43809;SDS011;29440;48.208;11.162;2023-08-31T01:42:06;4.05;;;1.75;;
43809;SDS011;29440;48.208;11.162;2023-08-31T01:44:35;2.78;;;1.80;;
43809;SDS011;29440;48.208;11.162;2023-08-31T01:47:03;2.20;;;1.25;;
43809;SDS011;29440;48.208;11.162;2023-08-31T01:49:36;5.13;;;1.70;;
43809;SDS011;29440;48.208;11.162;2023-08-31T01:52:08;1.50;;;1.40;;
43809;SDS011;29440;48.208;11.162;2023-08-31T01:54:34;2.38;;;1.73;;
43809;SDS011;29440;48.208;11.162;2023-08-31T01:56:59;2.65;;;1.85;;
43809;SDS011;29440;48.208;11.162;2023-08-31T01:59:28;2.10;;;1.90;;
43809;SDS011;29440;48.208;11.162;2023-08-31T02:01:54;3.28;;;1.75;;
43809;SDS011;29440;48.208;11.162;2023-08-31T02:04:19;2.45;;;1.90;;
43809;SDS011;29440;48.208;11.162;2023-08-31T02:06:45;3.13;;;2.10;;
43809;SDS011;29440;48.208;11.162;2023-08-31T02:09:13;2.88;;;2.03;;
43809;SDS011;29440;48.208;11.162;2023-08-31T02:11:39;2.78;;;2.15;;
43809;SDS011;29440;48.208;11.162;2023-08-31T02:14:04;3.00;;;2.20;;
43809;SDS011;29440;48.208;11.162;2023-08-31T02:16:30;2.60;;;1.80;;
43809;SDS011;29440;48.208;11.162;2023-08-31T02:18:56;3.28;;;2.65;;
43809;SDS011;29440;48.208;11.162;2023-08-31T02:21:22;3.45;;;2.40;;
43809;SDS011;29440;48.208;11.162;2023-08-31T02:23:48;3.95;;;2.42;;
43809;SDS011;29440;48.208;11.162;2023-08-31T02:26:14;4.15;;;2.65;;
43809;SDS011;29440;48.208;11.162;2023-08-31T02:28:39;2.85;;;2.53;;
43809;SDS011;29440;48.208;11.162;2023-08-31T02:31:05;4.43;;;2.92;;
43809;SDS011;29440;48.208;11.162;2023-08-31T02:33:30;4.18;;;2.80;;
43809;SDS011;29440;48.208;11.162;2023-08-31T02:35:56;3.58;;;2.78;;
43809;SDS011;29440;48.208;11.162;2023-08-31T02:38:22;4.03;;;2.63;;
43809;SDS011;29440;48.208;11.162;2023-08-31T02:40:48;7.03;;;3.75;;
43809;SDS011;29440;48.208;11.162;2023-08-31T02:43:14;3.70;;;2.92;;
43809;SDS011;29440;48.208;11.162;2023-08-31T02:45:40;3.80;;;2.60;;
43809;SDS011;29440;48.208;11.162;2023-08-31T02:48:09;3.13;;;2.83;;
43809;SDS011;29440;48.208;11.162;2023-08-31T02:50:35;5.43;;;2.72;;
43809;SDS011;29440;48.208;11.162;2023-08-31T02:53:01;4.00;;;2.83;;
43809;SDS011;29440;48.208;11.162;2023-08-31T02:55:27;3.20;;;2.88;;
43809;SDS011;29440;48.208;11.162;2023-08-31T02:57:53;3.33;;;2.50;;
43809;SDS011;29440;48.208;11.162;2023-08-31T03:00:19;6.82;;;3.28;;
43809;SDS011;29440;48.208;11.162;2023-08-31T03:02:49;4.35;;;3.15;;
43809;SDS011;29440;48.208;11.162;2023-08-31T03:05:17;4.25;;;3.38;;
43809;SDS011;29440;48.208;11.162;2023-08-31T03:07:43;4.90;;;3.60;;
43809;SDS011;29440;48.208;11.162;2023-08-31T03:10:09;5.57;;;4.13;;
43809;SDS011;29440;48.208;11.162;2023-08-31T03:12:35;4.68;;;3.40;;
43809;SDS011;29440;48.208;11.162;2023-08-31T03:15:01;5.20;;;4.00;;
43809;SDS011;29440;48.208;11.162;2023-08-31T03:17:27;4.75;;;3.60;;
43809;SDS011;29440;48.208;11.162;2023-08-31T03:19:52;4.15;;;3.45;;
43809;SDS011;29440;48.208;11.162;2023-08-31T03:22:18;5.47;;;3.80;;
43809;SDS011;29440;48.208;11.162;2023-08-31T03:24:46;5.75;;;3.78;;
43809;SDS011;29440;48.208;11.162;2023-08-31T03:27:12;5.90;;;4.28;;
43809;SDS011;29440;48.208;11.162;2023-08-31T03:29:38;4.63;;;3.75;;
43809;SDS011;29440;48.208;11.162;2023-08-31T03:32:04;4.38;;;3.72;;
43809;SDS011;29440;48.208;11.162;2023-08-31T03:34:30;5.25;;;4.22;;
43809;SDS011;29440;48.208;11.162;2023-08-31T03:36:57;7.53;;;4.20;;
43809;SDS011;29440;48.208;11.162;2023-08-31T03:39:27;6.55;;;3.47;;
43809;SDS011;29440;48.208;11.162;2023-08-31T03:41:58;6.55;;;3.67;;
43809;SDS011;29440;48.208;11.162;2023-08-31T03:44:24;6.20;;;4.00;;
43809;SDS011;29440;48.208;11.162;2023-08-31T03:46:50;5.30;;;4.10;;
43809;SDS011;29440;48.208;11.162;2023-08-31T03:49:15;4.38;;;3.53;;
43809;SDS011;29440;48.208;11.162;2023-08-31T03:51:41;4.97;;;3.92;;
43809;SDS011;29440;48.208;11.162;2023-08-31T03:54:08;4.72;;;4.03;;
43809;SDS011;29440;48.208;11.162;2023-08-31T03:56:34;4.72;;;4.30;;
43809;SDS011;29440;48.208;11.162;2023-08-31T03:59:01;6.43;;;3.78;;
43809;SDS011;29440;48.208;11.162;2023-08-31T04:01:28;5.78;;;3.80;;
43809;SDS011;29440;48.208;11.162;2023-08-31T04:03:54;5.18;;;3.75;;
43809;SDS011;29440;48.208;11.162;2023-08-31T04:06:20;4.55;;;3.80;;
43809;SDS011;29440;48.208;11.162;2023-08-31T04:08:48;4.75;;;4.07;;
43809;SDS011;29440;48.208;11.162;2023-08-31T04:11:14;4.72;;;3.80;;
43809;SDS011;29440;48.208;11.162;2023-08-31T04:13:40;5.72;;;3.83;;
43809;SDS011;29440;48.208;11.162;2023-08-31T04:16:06;5.40;;;3.72;;
43809;SDS011;29440;48.208;11.162;2023-08-31T04:18:31;5.10;;;3.75;;
43809;SDS011;29440;48.208;11.162;2023-08-31T04:21:00;5.38;;;3.88;;
43809;SDS011;29440;48.208;11.162;2023-08-31T04:23:28;4.53;;;3.90;;
43809;SDS011;29440;48.208;11.162;2023-08-31T04:25:57;6.63;;;3.88;;
43809;SDS011;29440;48.208;11.162;2023-08-31T04:28:24;5.90;;;3.28;;
43809;SDS011;29440;48.208;11.162;2023-08-31T04:30:50;4.90;;;4.13;;
43809;SDS011;29440;48.208;11.162;2023-08-31T04:33:20;4.68;;;3.70;;
43809;SDS011;29440;48.208;11.162;2023-08-31T04:35:49;4.65;;;3.63;;
43809;SDS011;29440;48.208;11.162;2023-08-31T04:38:14;4.00;;;3.17;;
43809;SDS011;29440;48.208;11.162;2023-08-31T04:40:44;4.60;;;3.67;;
43809;SDS011;29440;48.208;11.162;2023-08-31T04:43:09;3.00;;;2.53;;
43809;SDS011;29440;48.208;11.162;2023-08-31T04:45:35;4.20;;;2.92;;
43809;SDS011;29440;48.208;11.162;2023-08-31T04:48:01;7.70;;;3.63;;
43809;SDS011;29440;48.208;11.162;2023-08-31T04:50:28;4.93;;;3.58;;
43809;SDS011;29440;48.208;11.162;2023-08-31T04:52:59;4.93;;;3.20;;
43809;SDS011;29440;48.208;11.162;2023-08-31T04:55:25;4.72;;;3.50;;
43809;SDS011;29440;48.208;11.162;2023-08-31T04:57:51;3.58;;;3.00;;
43809;SDS011;29440;48.208;11.162;2023-08-31T05:00:17;3.15;;;2.75;;
43809;SDS011;29440;48.208;11.162;2023-08-31T05:02:46;4.80;;;3.03;;
43809;SDS011;29440;48.208;11.162;2023-08-31T05:05:13;4.47;;;3.22;;
43809;SDS011;29440;48.208;11.162;2023-08-31T05:07:39;4.25;;;3.13;;
43809;SDS011;29440;48.208;11.162;2023-08-31T05:10:05;5.57;;;3.05;;
43809;SDS011;29440;48.208;11.162;2023-08-31T05:12:34;3.08;;;2.78;;
43809;SDS011;29440;48.208;11.162;2023-08-31T05:15:04;3.30;;;2.35;;
43809;SDS011;29440;48.208;11.162;2023-08-31T05:17:30;3.30;;;2.00;;
43809;SDS011;29440;48.208;11.162;2023-08-31T05:19:56;3.83;;;2.72;;
43809;SDS011;29440;48.208;11.162;2023-08-31T05:22:22;4.13;;;2.58;;
43809;SDS011;29440;48.208;11.162;2023-08-31T05:24:49;3.10;;;2.20;;
43809;SDS011;29440;48.208;11.162;2023-08-31T05:27:18;3.10;;;2.35;;
43809;SDS011;29440;48.208;11.162;2023-08-31T05:29:43;2.97;;;2.55;;
43809;SDS011;29440;48.208;11.162;2023-08-31T05:32:09;3.70;;;2.30;;
43809;SDS011;29440;48.208;11.162;2023-08-31T05:34:34;2.92;;;2.13;;
43809;SDS011;29440;48.208;11.162;2023-08-31T05:37:03;3.17;;;2.42;;
43809;SDS011;29440;48.208;11.162;2023-08-31T05:39:32;1.92;;;1.67;;
43809;SDS011;29440;48.208;11.162;2023-08-31T05:41:57;2.13;;;1.80;;
43809;SDS011;29440;48.208;11.162;2023-08-31T05:44:23;3.30;;;1.85;;
43809;SDS011;29440;48.208;11.162;2023-08-31T05:46:48;2.95;;;2.10;;
43809;SDS011;29440;48.208;11.162;2023-08-31T05:49:14;2.28;;;1.80;;
43809;SDS011;29440;48.208;11.162;2023-08-31T05:51:43;2.08;;;1.75;;
43809;SDS011;29440;48.208;11.162;2023-08-31T05:54:09;2.00;;;1.60;;
43809;SDS011;29440;48.208;11.162;2023-08-31T05:56:38;3.00;;;1.92;;
43809;SDS011;29440;48.208;11.162;2023-08-31T05:59:05;2.30;;;1.80;;
43809;SDS011;29440;48.208;11.162;2023-08-31T06:01:31;2.83;;;1.92;;
43809;SDS011;29440;48.208;11.162;2023-08-31T06:03:57;2.30;;;1.77;;
43809;SDS011;29440;48.208;11.162;2023-08-31T06:06:25;4.03;;;1.58;;
43809;SDS011;29440;48.208;11.162;2023-08-31T06:08:51;4.25;;;1.50;;
43809;SDS011;29440;48.208;11.162;2023-08-31T06:11:18;3.35;;;1.20;;
43809;SDS011;29440;48.208;11.162;2023-08-31T06:13:44;3.13;;;1.60;;
43809;SDS011;29440;48.208;11.162;2023-08-31T06:16:09;2.65;;;1.45;;
43809;SDS011;29440;48.208;11.162;2023-08-31T06:18:35;1.88;;;1.25;;
43809;SDS011;29440;48.208;11.162;2023-08-31T06:21:04;3.30;;;1.40;;
43809;SDS011;29440;48.208;11.162;2023-08-31T06:23:30;3.72;;;1.20;;
43809;SDS011;29440;48.208;11.162;2023-08-31T06:25:55;1.80;;;1.27;;
43809;SDS011;29440;48.208;11.162;2023-08-31T06:28:21;2.65;;;1.25;;
43809;SDS011;29440;48.208;11.162;2023-08-31T06:30:46;2.78;;;1.13;;
43809;SDS011;29440;48.208;11.162;2023-08-31T06:33:16;1.83;;;1.02;;
43809;SDS011;29440;48.208;11.162;2023-08-31T06:35:45;2.75;;;1.40;;
43809;SDS011;29440;48.208;11.162;2023-08-31T06:38:13;3.75;;;1.25;;
43809;SDS011;29440;48.208;11.162;2023-08-31T06:40:39;3.30;;;1.40;;
43809;SDS011;29440;48.208;11.162;2023-08-31T06:43:07;2.40;;;1.20;;
43809;SDS011;29440;48.208;11.162;2023-08-31T06:45:33;1.73;;;1.15;;
43809;SDS011;29440;48.208;11.162;2023-08-31T06:47:59;3.20;;;0.90;;
43809;SDS011;29440;48.208;11.162;2023-08-31T06:50:24;3.70;;;1.05;;
43809;SDS011;29440;48.208;11.162;2023-08-31T06:52:50;2.00;;;1.10;;
43809;SDS011;29440;48.208;11.162;2023-08-31T06:55:16;2.13;;;0.73;;
43809;SDS011;29440;48.208;11.162;2023-08-31T06:57:41;1.63;;;0.90;;
43809;SDS011;29440;48.208;11.162;2023-08-31T07:00:08;3.95;;;0.80;;
43809;SDS011;29440;48.208;11.162;2023-08-31T07:02:34;1.75;;;1.00;;
43809;SDS011;29440;48.208;11.162;2023-08-31T07:05:02;2.80;;;1.00;;
43809;SDS011;29440;48.208;11.162;2023-08-31T07:07:28;3.92;;;1.25;;
43809;SDS011;29440;48.208;11.162;2023-08-31T07:09:54;3.70;;;1.00;;
43809;SDS011;29440;48.208;11.162;2023-08-31T07:12:21;2.78;;;1.13;;
43809;SDS011;29440;48.208;11.162;2023-08-31T07:14:46;2.35;;;1.20;;
43809;SDS011;29440;48.208;11.162;2023-08-31T07:17:12;2.08;;;1.08;;
43809;SDS011;29440;48.208;11.162;2023-08-31T07:19:37;2.28;;;1.20;;
43809;SDS011;29440;48.208;11.162;2023-08-31T07:22:04;2.28;;;1.10;;
43809;SDS011;29440;48.208;11.162;2023-08-31T07:24:31;4.25;;;1.17;;
43809;SDS011;29440;48.208;11.162;2023-08-31T07:26:57;3.05;;;1.25;;
43809;SDS011;29440;48.208;11.162;2023-08-31T07:29:23;2.50;;;1.17;;
43809;SDS011;29440;48.208;11.162;2023-08-31T07:31:49;2.50;;;1.30;;
43809;SDS011;29440;48.208;11.162;2023-08-31T07:34:15;5.13;;;1.50;;
43809;SDS011;29440;48.208;11.162;2023-08-31T07:36:41;5.45;;;1.15;;
43809;SDS011;29440;48.208;11.162;2023-08-31T07:39:07;2.10;;;0.82;;
43809;SDS011;29440;48.208;11.162;2023-08-31T07:41:33;3.15;;;1.00;;
43809;SDS011;29440;48.208;11.162;2023-08-31T07:43:58;3.38;;;1.13;;
43809;SDS011;29440;48.208;11.162;2023-08-31T07:46:24;3.65;;;1.17;;
43809;SDS011;29440;48.208;11.162;2023-08-31T07:48:50;2.03;;;0.90;;
43809;SDS011;29440;48.208;11.162;2023-08-31T07:51:16;1.55;;;1.00;;
43809;SDS011;29440;48.208;11.162;2023-08-31T07:53:41;3.88;;;1.17;;
43809;SDS011;29440;48.208;11.162;2023-08-31T07:56:07;2.95;;;1.10;;
43809;SDS011;29440;48.208;11.162;2023-08-31T07:58:32;3.97;;;1.20;;
43809;SDS011;29440;48.208;11.162;2023-08-31T08:00:58;3.42;;;0.98;;
43809;SDS011;29440;48.208;11.162;2023-08-31T08:03:24;2.95;;;1.00;;
43809;SDS011;29440;48.208;11.162;2023-08-31T08:05:50;2.42;;;1.13;;
43809;SDS011;29440;48.208;11.162;2023-08-31T08:08:16;1.50;;;0.93;;
43809;SDS011;29440;48.208;11.162;2023-08-31T08:10:42;2.83;;;1.17;;
43809;SDS011;29440;48.208;11.162;2023-08-31T08:13:08;2.55;;;0.93;;
43809;SDS011;29440;48.208;11.162;2023-08-31T08:15:34;4.43;;;1.00;;
43809;SDS011;29440;48.208;11.162;2023-08-31T08:18:00;3.60;;;1.45;;
43809;SDS011;29440;48.208;11.162;2023-08-31T08:20:27;3.83;;;1.55;;
43809;SDS011;29440;48.208;11.162;2023-08-31T08:22:53;5.75;;;1.27;;
43809;SDS011;29440;48.208;11.162;2023-08-31T08:25:19;2.47;;;1.20;;
43809;SDS011;29440;48.208;11.162;2023-08-31T08:27:45;4.15;;;1.10;;
43809;SDS011;29440;48.208;11.162;2023-08-31T08:30:11;4.60;;;1.23;;
43809;SDS011;29440;48.208;11.162;2023-08-31T08:32:37;4.13;;;1.40;;
43809;SDS011;29440;48.208;11.162;2023-08-31T08:35:03;3.25;;;1.00;;
43809;SDS011;29440;48.208;11.162;2023-08-31T08:37:28;4.25;;;1.20;;
43809;SDS011;29440;48.208;11.162;2023-08-31T08:39:54;5.93;;;1.17;;
43809;SDS011;29440;48.208;11.162;2023-08-31T08:42:20;5.80;;;1.30;;
43809;SDS011;29440;48.208;11.162;2023-08-31T08:44:49;2.80;;;1.10;;
43809;SDS011;29440;48.208;11.162;2023-08-31T08:47:16;3.10;;;1.30;;
43809;SDS011;29440;48.208;11.162;2023-08-31T08:49:43;2.15;;;0.98;;
43809;SDS011;29440;48.208;11.162;2023-08-31T08:52:09;3.17;;;0.93;;
43809;SDS011;29440;48.208;11.162;2023-08-31T08:54:36;2.10;;;1.17;;
43809;SDS011;29440;48.208;11.162;2023-08-31T08:57:02;2.05;;;1.10;;
43809;SDS011;29440;48.208;11.162;2023-08-31T08:59:29;3.25;;;1.30;;
43809;SDS011;29440;48.208;11.162;2023-08-31T09:01:56;3.85;;;1.35;;
43809;SDS011;29440;48.208;11.162;2023-08-31T09:04:21;3.75;;;1.00;;
43809;SDS011;29440;48.208;11.162;2023-08-31T09:06:48;4.00;;;1.10;;
43809;SDS011;29440;48.208;11.162;2023-08-31T09:09:15;5.47;;;1.08;;
43809;SDS011;29440;48.208;11.162;2023-08-31T09:11:42;3.42;;;1.00;;
43809;SDS011;29440;48.208;11.162;2023-08-31T09:14:14;5.05;;;1.58;;
43809;SDS011;29440;48.208;11.162;2023-08-31T09:16:50;3.10;;;0.90;;
43809;SDS011;29440;48.208;11.162;2023-08-31T09:19:20;4.55;;;0.95;;
43809;SDS011;29440;48.208;11.162;2023-08-31T09:21:51;3.55;;;1.10;;
43809;SDS011;29440;48.208;11.162;2023-08-31T09:24:17;2.53;;;0.95;;
43809;SDS011;29440;48.208;11.162;2023-08-31T09:26:44;7.30;;;1.23;;
43809;SDS011;29440;48.208;11.162;2023-08-31T09:29:13;2.85;;;0.95;;
43809;SDS011;29440;48.208;11.162;2023-08-31T09:31:43;2.80;;;1.20;;
43809;SDS011;29440;48.208;11.162;2023-08-31T09:34:10;2.65;;;0.82;;
43809;SDS011;29440;48.208;11.162;2023-08-31T09:36:36;4.05;;;1.02;;
43809;SDS011;29440;48.208;11.162;2023-08-31T09:39:03;4.60;;;1.00;;
43809;SDS011;29440;48.208;11.162;2023-08-31T09:41:30;3.10;;;1.02;;
43809;SDS011;29440;48.208;11.162;2023-08-31T09:43:55;2.58;;;1.00;;
43809;SDS011;29440;48.208;11.162;2023-08-31T09:46:21;3.03;;;1.05;;
43809;SDS011;29440;48.208;11.162;2023-08-31T09:48:47;4.15;;;1.00;;
43809;SDS011;29440;48.208;11.162;2023-08-31T09:51:15;4.15;;;1.25;;
43809;SDS011;29440;48.208;11.162;2023-08-31T09:53:47;2.50;;;1.02;;
43809;SDS011;29440;48.208;11.162;2023-08-31T09:56:16;3.40;;;1.10;;
43809;SDS011;29440;48.208;11.162;2023-08-31T09:58:45;6.05;;;1.20;;
43809;SDS011;29440;48.208;11.162;2023-08-31T10:01:12;4.35;;;1.50;;
43809;SDS011;29440;48.208;11.162;2023-08-31T10:03:38;2.70;;;1.30;;
43809;SDS011;29440;48.208;11.162;2023-08-31T10:06:04;2.47;;;1.08;;
43809;SDS011;29440;48.208;11.162;2023-08-31T10:08:30;4.00;;;1.00;;
43809;SDS011;29440;48.208;11.162;2023-08-31T10:11:00;4.03;;;1.02;;
43809;SDS011;29440;48.208;11.162;2023-08-31T10:13:30;3.65;;;0.93;;
43809;SDS011;29440;48.208;11.162;2023-08-31T10:16:00;4.28;;;1.10;;
43809;SDS011;29440;48.208;11.162;2023-08-31T10:18:28;3.03;;;1.02;;
43809;SDS011;29440;48.208;11.162;2023-08-31T10:20:55;4.95;;;1.15;;
43809;SDS011;29440;48.208;11.162;2023-08-31T10:23:21;4.00;;;0.95;;
43809;SDS011;29440;48.208;11.162;2023-08-31T10:28:19;5.82;;;1.70;;
43809;SDS011;29440;48.208;11.162;2023-08-31T10:33:32;2.97;;;1.20;;
43809;SDS011;29440;48.208;11.162;2023-08-31T10:36:12;3.88;;;1.20;;
43809;SDS011;29440;48.208;11.162;2023-08-31T10:38:42;4.40;;;1.45;;
43809;SDS011;29440;48.208;11.162;2023-08-31T10:43:43;2.13;;;1.27;;
43809;SDS011;29440;48.208;11.162;2023-08-31T10:46:24;4.68;;;1.92;;
43809;SDS011;29440;48.208;11.162;2023-08-31T10:51:27;7.85;;;1.88;;
43809;SDS011;29440;48.208;11.162;2023-08-31T10:56:36;2.28;;;0.90;;
43809;SDS011;29440;48.208;11.162;2023-08-31T10:59:19;3.55;;;0.88;;
43809;SDS011;29440;48.208;11.162;2023-08-31T11:02:00;3.92;;;0.98;;
43809;SDS011;29440;48.208;11.162;2023-08-31T11:04:28;3.30;;;1.00;;
43809;SDS011;29440;48.208;11.162;2023-08-31T11:07:13;1.88;;;0.85;;
43809;SDS011;29440;48.208;11.162;2023-08-31T11:09:40;3.83;;;1.02;;
43809;SDS011;29440;48.208;11.162;2023-08-31T11:12:06;4.82;;;0.85;;
43809;SDS011;29440;48.208;11.162;2023-08-31T11:14:33;2.08;;;0.98;;
43809;SDS011;29440;48.208;11.162;2023-08-31T11:16:59;2.50;;;0.82;;
43809;SDS011;29440;48.208;11.162;2023-08-31T11:19:25;2.13;;;0.77;;
43809;SDS011;29440;48.208;11.162;2023-08-31T11:21:51;4.60;;;1.00;;
43809;SDS011;29440;48.208;11.162;2023-08-31T11:24:17;6.47;;;1.50;;
43809;SDS011;29440;48.208;11.162;2023-08-31T11:26:43;3.28;;;0.90;;
43809;SDS011;29440;48.208;11.162;2023-08-31T11:29:12;3.13;;;0.93;;
43809;SDS011;29440;48.208;11.162;2023-08-31T11:31:38;5.07;;;1.00;;
43809;SDS011;29440;48.208;11.162;2023-08-31T11:34:05;2.75;;;1.05;;
43809;SDS011;29440;48.208;11.162;2023-08-31T11:36:31;2.97;;;1.02;;
43809;SDS011;29440;48.208;11.162;2023-08-31T11:38:57;3.70;;;0.82;;
43809;SDS011;29440;48.208;11.162;2023-08-31T11:41:23;7.72;;;1.33;;
43809;SDS011;29440;48.208;11.162;2023-08-31T11:43:49;3.00;;;0.80;;
43809;SDS011;29440;48.208;11.162;2023-08-31T11:46:17;3.42;;;1.20;;
43809;SDS011;29440;48.208;11.162;2023-08-31T11:48:43;3.40;;;1.00;;
43809;SDS011;29440;48.208;11.162;2023-08-31T11:51:10;1.73;;;1.10;;
43809;SDS011;29440;48.208;11.162;2023-08-31T11:53:37;1.48;;;1.00;;
43809;SDS011;29440;48.208;11.162;2023-08-31T11:56:03;2.95;;;1.30;;
43809;SDS011;29440;48.208;11.162;2023-08-31T11:58:29;5.22;;;1.42;;
43809;SDS011;29440;48.208;11.162;2023-08-31T12:00:56;1.92;;;0.88;;
43809;SDS011;29440;48.208;11.162;2023-08-31T12:03:25;4.70;;;1.20;;
43809;SDS011;29440;48.208;11.162;2023-08-31T12:05:52;6.43;;;1.08;;
43809;SDS011;29440;48.208;11.162;2023-08-31T12:08:26;4.07;;;1.23;;
43809;SDS011;29440;48.208;11.162;2023-08-31T12:10:52;5.20;;;1.00;;
43809;SDS011;29440;48.208;11.162;2023-08-31T12:13:18;3.72;;;1.00;;
43809;SDS011;29440;48.208;11.162;2023-08-31T12:15:44;1.55;;;0.80;;
43809;SDS011;29440;48.208;11.162;2023-08-31T12:18:13;5.10;;;1.30;;
43809;SDS011;29440;48.208;11.162;2023-08-31T12:20:46;2.88;;;0.80;;
43809;SDS011;29440;48.208;11.162;2023-08-31T12:23:12;4.07;;;0.80;;
43809;SDS011;29440;48.208;11.162;2023-08-31T12:25:45;3.22;;;0.88;;
43809;SDS011;29440;48.208;11.162;2023-08-31T12:28:13;4.13;;;1.27;;
43809;SDS011;29440;48.208;11.162;2023-08-31T12:30:42;1.50;;;0.70;;
43809;SDS011;29440;48.208;11.162;2023-08-31T12:33:11;2.35;;;0.93;;
43809;SDS011;29440;48.208;11.162;2023-08-31T12:35:36;4.05;;;1.00;;
43809;SDS011;29440;48.208;11.162;2023-08-31T12:38:03;4.82;;;0.90;;
43809;SDS011;29440;48.208;11.162;2023-08-31T12:40:29;1.60;;;0.70;;
43809;SDS011;29440;48.208;11.162;2023-08-31T12:42:55;2.47;;;0.90;;
43809;SDS011;29440;48.208;11.162;2023-08-31T12:45:20;2.67;;;0.80;;
43809;SDS011;29440;48.208;11.162;2023-08-31T12:47:46;4.55;;;0.80;;
43809;SDS011;29440;48.208;11.162;2023-08-31T12:50:12;2.85;;;0.80;;
43809;SDS011;29440;48.208;11.162;2023-08-31T12:52:38;3.83;;;0.90;;
43809;SDS011;29440;48.208;11.162;2023-08-31T12:55:09;3.33;;;0.80;;
43809;SDS011;29440;48.208;11.162;2023-08-31T12:57:35;2.35;;;0.80;;
43809;SDS011;29440;48.208;11.162;2023-08-31T13:00:01;2.75;;;0.90;;
43809;SDS011;29440;48.208;11.162;2023-08-31T13:02:30;3.20;;;0.95;;
43809;SDS011;29440;48.208;11.162;2023-08-31T13:04:56;3.45;;;0.80;;
43809;SDS011;29440;48.208;11.162;2023-08-31T13:07:21;2.55;;;0.90;;
43809;SDS011;29440;48.208;11.162;2023-08-31T13:09:49;3.72;;;0.90;;
43809;SDS011;29440;48.208;11.162;2023-08-31T13:12:15;2.17;;;1.05;;
43809;SDS011;29440;48.208;11.162;2023-08-31T13:14:43;3.28;;;1.02;;
43809;SDS011;29440;48.208;11.162;2023-08-31T13:17:09;3.15;;;0.90;;
43809;SDS011;29440;48.208;11.162;2023-08-31T13:19:35;2.42;;;0.90;;
43809;SDS011;29440;48.208;11.162;2023-08-31T13:22:01;2.97;;;1.00;;
43809;SDS011;29440;48.208;11.162;2023-08-31T13:24:27;2.53;;;0.85;;
43809;SDS011;29440;48.208;11.162;2023-08-31T13:26:53;3.90;;;1.00;;
43809;SDS011;29440;48.208;11.162;2023-08-31T13:29:20;5.53;;;0.98;;
43809;SDS011;29440;48.208;11.162;2023-08-31T13:31:49;4.07;;;1.20;;
43809;SDS011;29440;48.208;11.162;2023-08-31T13:34:15;3.08;;;0.80;;
43809;SDS011;29440;48.208;11.162;2023-08-31T13:36:41;3.05;;;0.70;;
43809;SDS011;29440;48.208;11.162;2023-08-31T13:39:07;3.33;;;0.90;;
43809;SDS011;29440;48.208;11.162;2023-08-31T13:41:33;5.18;;;0.95;;
43809;SDS011;29440;48.208;11.162;2023-08-31T13:43:58;2.50;;;0.80;;
43809;SDS011;29440;48.208;11.162;2023-08-31T13:46:24;4.30;;;0.90;;
43809;SDS011;29440;48.208;11.162;2023-08-31T13:48:53;3.53;;;0.93;;
43809;SDS011;29440;48.208;11.162;2023-08-31T13:51:18;3.70;;;1.08;;
43809;SDS011;29440;48.208;11.162;2023-08-31T13:53:45;3.70;;;1.10;;
43809;SDS011;29440;48.208;11.162;2023-08-31T13:56:11;3.40;;;1.05;;
43809;SDS011;29440;48.208;11.162;2023-08-31T13:58:36;1.75;;;0.70;;
43809;SDS011;29440;48.208;11.162;2023-08-31T14:01:02;3.10;;;0.90;;
43809;SDS011;29440;48.208;11.162;2023-08-31T14:03:28;2.38;;;0.90;;
43809;SDS011;29440;48.208;11.162;2023-08-31T14:05:54;6.18;;;1.00;;
43809;SDS011;29440;48.208;11.162;2023-08-31T14:08:20;2.42;;;1.10;;
43809;SDS011;29440;48.208;11.162;2023-08-31T14:10:45;3.33;;;1.20;;
43809;SDS011;29440;48.208;11.162;2023-08-31T14:13:11;3.95;;;1.02;;
43809;SDS011;29440;48.208;11.162;2023-08-31T14:15:37;3.55;;;1.00;;
43809;SDS011;29440;48.208;11.162;2023-08-31T14:18:09;3.53;;;0.95;;
43809;SDS011;29440;48.208;11.162;2023-08-31T14:20:34;2.85;;;0.90;;
43809;SDS011;29440;48.208;11.162;2023-08-31T14:23:00;3.10;;;0.90;;
43809;SDS011;29440;48.208;11.162;2023-08-31T14:25:27;1.65;;;0.70;;
43809;SDS011;29440;48.208;11.162;2023-08-31T14:27:53;2.45;;;1.00;;
43809;SDS011;29440;48.208;11.162;2023-08-31T14:30:18;2.67;;;0.80;;
43809;SDS011;29440;48.208;11.162;2023-08-31T14:32:44;4.25;;;1.08;;
43809;SDS011;29440;48.208;11.162;2023-08-31T14:35:10;4.03;;;1.13;;
43809;SDS011;29440;48.208;11.162;2023-08-31T14:37:36;3.63;;;1.05;;
43809;SDS011;29440;48.208;11.162;2023-08-31T14:40:02;3.45;;;1.10;;
43809;SDS011;29440;48.208;11.162;2023-08-31T14:42:31;4.20;;;0.98;;
43809;SDS011;29440;48.208;11.162;2023-08-31T14:44:58;3.38;;;1.02;;
43809;SDS011;29440;48.208;11.162;2023-08-31T14:47:25;5.93;;;1.00;;